Time;durP1;ratioP1;P1;durP2;ratioP2;P2;SDS_P1;SDS_P2;PMS_P1;PMS_P2;Temp;Humidity;BMP_temperature;BMP_pressure;BME280_temperature;BME280_humidity;BME280_pressure;Samples;Min_cycle;Max_cycle;Signal;HPM_P1;HPM_P2
2023/12/25 00:00:22;;;;;;;4.53;4.07;;;;;;;;;;1023040;29;20062;-74
2023/12/25 00:00:52;;;;;;;3.83;3.50;;;;;;;;;;1022736;29;20027;-74
2023/12/25 00:01:23;;;;;;;3.28;2.85;;;;;;;;;;1023124;29;20027;-74
2023/12/25 00:01:53;;;;;;;2.22;2.13;;;;;;;;;;1023144;29;20047;-74
2023/12/25 00:02:24;;;;;;;11.07;5.93;;;;;;;;;;1023205;29;20129;-74
2023/12/25 00:02:54;;;;;;;3.63;2.55;;;;;;;;;;1023368;29;20112;-74
2023/12/25 00:03:25;;;;;;;11.50;3.33;;;;;;;;;;1023416;29;20126;-74
2023/12/25 00:03:55;;;;;;;2.75;2.58;;;;;;;;;;1023077;29;20023;-74
2023/12/25 00:04:26;;;;;;;4.95;4.30;;;;;;;;;;1021134;29;20031;-74
2023/12/25 00:04:56;;;;;;;3.78;3.47;;;;;;;;;;1021070;29;20391;-74
2023/12/25 00:05:27;;;;;;;6.35;5.60;;;;;;;;;;1021003;28;20022;-74
2023/12/25 00:05:57;;;;;;;7.43;3.33;;;;;;;;;;1024785;28;20561;-74
2023/12/25 00:06:28;;;;;;;3.97;3.55;;;;;;;;;;1023417;28;20023;-74
2023/12/25 00:06:58;;;;;;;13.15;2.78;;;;;;;;;;1023415;29;20026;-74
2023/12/25 00:07:28;;;;;;;7.97;3.47;;;;;;;;;;1023404;29;20016;-74
2023/12/25 00:07:59;;;;;;;2.65;2.45;;;;;;;;;;1023140;29;20082;-74
2023/12/25 00:08:29;;;;;;;6.68;5.13;;;;;;;;;;1023049;29;20105;-74
2023/12/25 00:09:00;;;;;;;2.28;2.17;;;;;;;;;;1023065;29;20019;-74
2023/12/25 00:09:30;;;;;;;1.48;1.38;;;;;;;;;;1023039;29;20526;-74
2023/12/25 00:10:01;;;;;;;3.58;3.38;;;;;;;;;;1022987;29;20488;-74
2023/12/25 00:10:32;;;;;;;10.00;4.32;;;;;;;;;;1023165;29;20487;-74
2023/12/25 00:11:02;;;;;;;4.40;4.03;;;;;;;;;;1021921;29;20027;-74
2023/12/25 00:11:33;;;;;;;3.50;2.72;;;;;;;;;;1021970;29;20042;-74
2023/12/25 00:12:03;;;;;;;2.58;2.38;;;;;;;;;;1022200;29;20023;-74
2023/12/25 00:12:34;;;;;;;6.18;5.45;;;;;;;;;;1019167;29;20019;-74
2023/12/25 00:13:04;;;;;;;4.10;3.78;;;;;;;;;;1019192;29;20571;-74
2023/12/25 00:13:35;;;;;;;1.92;1.83;;;;;;;;;;1023186;29;20763;-74
2023/12/25 00:14:05;;;;;;;5.60;3.67;;;;;;;;;;1019108;29;20114;-74
2023/12/25 00:14:36;;;;;;;8.90;5.53;;;;;;;;;;1023065;29;20023;-74
2023/12/25 00:15:06;;;;;;;2.08;1.98;;;;;;;;;;1022906;29;20035;-74
2023/12/25 00:15:37;;;;;;;6.72;4.10;;;;;;;;;;1022924;29;20023;-74
2023/12/25 00:16:07;;;;;;;2.85;2.47;;;;;;;;;;1023288;29;20720;-74
2023/12/25 00:16:38;;;;;;;2.35;1.65;;;;;;;;;;1023048;29;20029;-74
2023/12/25 00:17:08;;;;;;;3.90;3.55;;;;;;;;;;1023060;29;20027;-74
2023/12/25 00:17:38;;;;;;;4.95;3.42;;;;;;;;;;1022918;29;20031;-74
2023/12/25 00:18:09;;;;;;;5.93;5.30;;;;;;;;;;1023096;29;20023;-74
2023/12/25 00:18:39;;;;;;;5.03;4.57;;;;;;;;;;1023415;29;20031;-74
2023/12/25 00:19:10;;;;;;;3.08;2.88;;;;;;;;;;1023305;28;20019;-74
2023/12/25 00:19:40;;;;;;;1.73;1.63;;;;;;;;;;1023024;29;20078;-74
2023/12/25 00:20:11;;;;;;;7.55;4.15;;;;;;;;;;1020872;29;20027;-74
2023/12/25 00:20:42;;;;;;;0.90;0.90;;;;;;;;;;1020900;28;20031;-74
2023/12/25 00:21:12;;;;;;;2.72;2.30;;;;;;;;;;1019982;28;20439;-74
2023/12/25 00:21:43;;;;;;;2.83;2.05;;;;;;;;;;1025109;28;20430;-74
2023/12/25 00:22:13;;;;;;;3.30;3.00;;;;;;;;;;1027005;28;20044;-74
2023/12/25 00:22:43;;;;;;;3.33;3.05;;;;;;;;;;1027361;28;20458;-74
2023/12/25 00:23:14;;;;;;;6.43;4.40;;;;;;;;;;1026936;28;20475;-74
2023/12/25 00:23:45;;;;;;;10.30;4.47;;;;;;;;;;1023099;29;20576;-74
2023/12/25 00:24:15;;;;;;;3.65;3.30;;;;;;;;;;1021161;29;20032;-74
2023/12/25 00:24:45;;;;;;;7.70;4.28;;;;;;;;;;1021098;29;20075;-74
2023/12/25 00:25:16;;;;;;;4.40;3.05;;;;;;;;;;1021115;28;20518;-74
2023/12/25 00:25:46;;;;;;;12.98;3.95;;;;;;;;;;1023516;28;20019;-74
2023/12/25 00:26:17;;;;;;;10.68;5.50;;;;;;;;;;1022955;28;20027;-74
2023/12/25 00:26:47;;;;;;;2.80;2.60;;;;;;;;;;1023004;29;20410;-74
2023/12/25 00:27:18;;;;;;;4.95;3.42;;;;;;;;;;1023755;29;20023;-74
2023/12/25 00:27:48;;;;;;;10.73;3.47;;;;;;;;;;1019823;29;20114;-74
2023/12/25 00:28:18;;;;;;;2.35;2.25;;;;;;;;;;1019902;29;20020;-74
2023/12/25 00:28:49;;;;;;;3.80;3.10;;;;;;;;;;1023812;29;20039;-74
2023/12/25 00:29:19;;;;;;;3.63;3.33;;;;;;;;;;1023703;28;20027;-74
2023/12/25 00:29:50;;;;;;;3.83;3.53;;;;;;;;;;1027912;28;20479;-74
2023/12/25 00:30:20;;;;;;;6.38;3.08;;;;;;;;;;1023699;29;20056;-74
2023/12/25 00:30:51;;;;;;;6.95;5.57;;;;;;;;;;1023641;28;20055;-74
2023/12/25 00:31:21;;;;;;;5.88;4.38;;;;;;;;;;1023768;29;20033;-74
2023/12/25 00:31:51;;;;;;;4.63;3.22;;;;;;;;;;1023893;29;20027;-74
2023/12/25 00:32:22;;;;;;;3.00;2.80;;;;;;;;;;1024203;29;20038;-74
2023/12/25 00:32:53;;;;;;;7.68;3.03;;;;;;;;;;1024048;28;20027;-74
2023/12/25 00:33:23;;;;;;;4.88;2.58;;;;;;;;;;1024176;29;20027;-74
2023/12/25 00:33:54;;;;;;;4.53;4.20;;;;;;;;;;1024156;29;20024;-74
2023/12/25 00:34:24;;;;;;;26.33;5.95;;;;;;;;;;1023822;29;20046;-74
2023/12/25 00:34:54;;;;;;;7.78;4.28;;;;;;;;;;1023660;29;20019;-74
2023/12/25 00:35:25;;;;;;;8.65;3.65;;;;;;;;;;1023699;29;20029;-74
2023/12/25 00:35:55;;;;;;;10.30;3.03;;;;;;;;;;1023621;28;20053;-74
2023/12/25 00:36:26;;;;;;;5.25;3.28;;;;;;;;;;1023648;29;20027;-74
2023/12/25 00:36:56;;;;;;;12.52;3.22;;;;;;;;;;1023232;29;20388;-74
2023/12/25 00:37:27;;;;;;;18.05;9.90;;;;;;;;;;1023930;29;20027;-74
2023/12/25 00:37:58;;;;;;;2.80;2.15;;;;;;;;;;1019936;29;20078;-74
2023/12/25 00:38:28;;;;;;;2.92;2.47;;;;;;;;;;1023870;29;20439;-74
2023/12/25 00:38:59;;;;;;;6.85;5.25;;;;;;;;;;1023758;29;20031;-74
2023/12/25 00:39:29;;;;;;;7.65;3.58;;;;;;;;;;1023749;28;20019;-74
2023/12/25 00:40:00;;;;;;;2.33;1.95;;;;;;;;;;1027789;28;20026;-74
2023/12/25 00:40:30;;;;;;;15.38;6.22;;;;;;;;;;1027643;28;20077;-74
2023/12/25 00:41:00;;;;;;;2.90;2.70;;;;;;;;;;1023905;29;20579;-74
2023/12/25 00:41:31;;;;;;;8.27;4.13;;;;;;;;;;1027671;28;20054;-74
2023/12/25 00:42:02;;;;;;;3.65;2.15;;;;;;;;;;1023747;29;20027;-74
2023/12/25 00:42:32;;;;;;;3.13;2.53;;;;;;;;;;1023909;29;20070;-74
2023/12/25 00:43:03;;;;;;;13.68;5.57;;;;;;;;;;1023837;29;20053;-74
2023/12/25 00:43:33;;;;;;;5.00;3.67;;;;;;;;;;1022835;29;20058;-74
2023/12/25 00:44:03;;;;;;;9.98;4.63;;;;;;;;;;1023713;29;20388;-74
2023/12/25 00:44:34;;;;;;;6.15;3.25;;;;;;;;;;1023860;29;20399;-74
2023/12/25 00:45:05;;;;;;;6.15;3.90;;;;;;;;;;1023577;29;20542;-74
2023/12/25 00:45:35;;;;;;;9.48;5.22;;;;;;;;;;1019776;29;20036;-74
2023/12/25 00:46:06;;;;;;;10.05;5.80;;;;;;;;;;1019596;29;20028;-74
2023/12/25 00:46:36;;;;;;;7.18;6.45;;;;;;;;;;1019952;29;20034;-74
2023/12/25 00:47:07;;;;;;;7.60;4.20;;;;;;;;;;1019726;29;20102;-74
2023/12/25 00:47:37;;;;;;;26.33;6.97;;;;;;;;;;1022640;29;20047;-74
2023/12/25 00:48:07;;;;;;;16.58;5.10;;;;;;;;;;1024121;29;20158;-74
2023/12/25 00:48:38;;;;;;;10.93;5.93;;;;;;;;;;1019706;29;20030;-74
2023/12/25 00:49:09;;;;;;;10.13;5.15;;;;;;;;;;1019784;29;20461;-74
2023/12/25 00:49:40;;;;;;;16.45;4.93;;;;;;;;;;1019709;29;20028;-74
2023/12/25 00:50:10;;;;;;;16.40;5.63;;;;;;;;;;1020061;28;20136;-74
2023/12/25 00:50:41;;;;;;;7.57;5.45;;;;;;;;;;1027567;28;20479;-74
2023/12/25 00:51:11;;;;;;;13.70;6.55;;;;;;;;;;1026692;28;20033;-74
2023/12/25 00:51:42;;;;;;;26.77;6.15;;;;;;;;;;1023210;29;20027;-74
2023/12/25 00:52:16;;;;;;;36.10;10.98;;;;;;;;;;1019605;29;20022;-74
2023/12/25 00:52:47;;;;;;;9.73;7.60;;;;;;;;;;1019658;29;20035;-74
2023/12/25 00:53:17;;;;;;;28.20;15.13;;;;;;;;;;1020428;29;20182;-74
2023/12/25 00:53:48;;;;;;;13.10;8.88;;;;;;;;;;1023926;29;20023;-74
2023/12/25 00:54:19;;;;;;;22.65;10.55;;;;;;;;;;1024143;29;20027;-74
2023/12/25 00:54:49;;;;;;;21.17;9.05;;;;;;;;;;1023753;29;20590;-74
2023/12/25 00:55:20;;;;;;;17.67;9.52;;;;;;;;;;1019881;29;20034;-74
2023/12/25 00:55:50;;;;;;;31.17;9.63;;;;;;;;;;1016628;29;20042;-74
2023/12/25 00:56:21;;;;;;;26.27;10.82;;;;;;;;;;1017073;29;20028;-74
2023/12/25 00:56:51;;;;;;;25.23;8.93;;;;;;;;;;1017879;29;20030;-74
2023/12/25 00:57:21;;;;;;;19.90;7.50;;;;;;;;;;1021647;29;20483;-74
2023/12/25 00:57:52;;;;;;;19.88;10.82;;;;;;;;;;1023018;29;20062;-74
2023/12/25 00:58:22;;;;;;;15.60;8.95;;;;;;;;;;1023776;29;20034;-74
2023/12/25 00:58:53;;;;;;;29.55;9.98;;;;;;;;;;1023601;29;20031;-74
2023/12/25 00:59:24;;;;;;;29.98;10.93;;;;;;;;;;1023732;28;20027;-74
2023/12/25 00:59:54;;;;;;;62.03;22.42;;;;;;;;;;1027651;28;20077;-74
2023/12/25 01:00:24;;;;;;;135.23;34.05;;;;;;;;;;1027344;28;20022;-74
2023/12/25 01:00:55;;;;;;;80.50;20.15;;;;;;;;;;1027380;28;20031;-74
2023/12/25 01:01:25;;;;;;;31.73;16.58;;;;;;;;;;1024247;28;20030;-74
2023/12/25 01:01:56;;;;;;;47.95;18.10;;;;;;;;;;1023386;29;20106;-74
2023/12/25 01:02:26;;;;;;;85.45;24.58;;;;;;;;;;1024007;28;20030;-74
2023/12/25 01:02:57;;;;;;;99.55;28.38;;;;;;;;;;1023920;28;20023;-74
2023/12/25 01:03:27;;;;;;;62.08;23.48;;;;;;;;;;1023962;28;20074;-74
2023/12/25 01:03:58;;;;;;;40.42;19.13;;;;;;;;;;1024124;28;20023;-74
2023/12/25 01:04:28;;;;;;;43.08;17.27;;;;;;;;;;1023903;28;20027;-74
2023/12/25 01:04:58;;;;;;;23.90;13.63;;;;;;;;;;1023860;28;20050;-74
2023/12/25 01:05:29;;;;;;;24.65;10.10;;;;;;;;;;1023862;28;20094;-74
2023/12/25 01:05:59;;;;;;;33.75;11.02;;;;;;;;;;1023257;28;20027;-74
2023/12/25 01:06:30;;;;;;;37.90;10.85;;;;;;;;;;1023298;29;20034;-74
2023/12/25 01:07:00;;;;;;;47.75;15.38;;;;;;;;;;1023493;29;20875;-74
2023/12/25 01:07:31;;;;;;;33.53;12.05;;;;;;;;;;1023423;29;20502;-74
2023/12/25 01:08:01;;;;;;;18.17;8.60;;;;;;;;;;1024076;28;20023;-74
2023/12/25 01:08:32;;;;;;;30.48;10.63;;;;;;;;;;1023810;29;20027;-74
2023/12/25 01:09:02;;;;;;;19.83;9.75;;;;;;;;;;1027555;28;20038;-74
2023/12/25 01:09:33;;;;;;;10.57;8.60;;;;;;;;;;1027589;28;20030;-74
2023/12/25 01:10:03;;;;;;;22.52;9.57;;;;;;;;;;1027655;28;20022;-74
2023/12/25 01:10:34;;;;;;;22.27;8.00;;;;;;;;;;1027430;28;20023;-74
2023/12/25 01:11:05;;;;;;;7.20;3.83;;;;;;;;;;1023822;29;20058;-74
2023/12/25 01:11:42;;;;;;;4.38;3.65;;;;;;;;;;1023965;29;20024;-74
2023/12/25 01:12:12;;;;;;;10.55;5.43;;;;;;;;;;1023613;29;20026;-74
2023/12/25 01:12:43;;;;;;;10.10;7.40;;;;;;;;;;1023838;29;20122;-74
2023/12/25 01:13:13;;;;;;;5.15;4.68;;;;;;;;;;1023968;29;20023;-74
2023/12/25 01:13:44;;;;;;;12.40;6.15;;;;;;;;;;1023913;28;20121;-74
2023/12/25 01:14:14;;;;;;;28.50;6.65;;;;;;;;;;1024037;29;20024;-74
2023/12/25 01:14:46;;;;;;;28.90;11.50;;;;;;;;;;1022735;29;20145;-74
2023/12/25 01:15:16;;;;;;;24.95;6.72;;;;;;;;;;1023496;29;20031;-74
2023/12/25 01:15:47;;;;;;;28.98;12.88;;;;;;;;;;1023531;28;20023;-74
2023/12/25 01:16:17;;;;;;;32.65;10.07;;;;;;;;;;1024018;28;20046;-74
2023/12/25 01:16:47;;;;;;;25.42;9.73;;;;;;;;;;1023640;28;20023;-74
2023/12/25 01:17:18;;;;;;;16.90;10.88;;;;;;;;;;1023435;29;20053;-74
2023/12/25 01:17:48;;;;;;;5.50;4.82;;;;;;;;;;1020708;29;20023;-74
2023/12/25 01:18:19;;;;;;;13.00;8.05;;;;;;;;;;1022603;29;20051;-74
2023/12/25 01:18:50;;;;;;;3.17;2.85;;;;;;;;;;1021356;29;20070;-74
2023/12/25 01:19:20;;;;;;;7.55;4.18;;;;;;;;;;1022106;29;20046;-74
2023/12/25 01:19:51;;;;;;;10.60;4.80;;;;;;;;;;1026794;28;20022;-74
2023/12/25 01:20:21;;;;;;;18.88;6.55;;;;;;;;;;1023706;29;20082;-74
2023/12/25 01:20:52;;;;;;;13.98;10.48;;;;;;;;;;1023564;29;20027;-74
2023/12/25 01:21:22;;;;;;;10.50;9.50;;;;;;;;;;1023641;28;20027;-74
2023/12/25 01:21:52;;;;;;;25.33;9.50;;;;;;;;;;1021955;28;20122;-74
2023/12/25 01:22:23;;;;;;;13.15;10.05;;;;;;;;;;1023516;29;20027;-74
2023/12/25 01:22:53;;;;;;;23.20;10.65;;;;;;;;;;1022693;28;20048;-74
2023/12/25 01:23:24;;;;;;;31.48;13.05;;;;;;;;;;1022157;28;20023;-74
2023/12/25 01:23:54;;;;;;;19.73;7.25;;;;;;;;;;1023163;29;20027;-74
2023/12/25 01:24:25;;;;;;;8.18;5.70;;;;;;;;;;1023035;29;20023;-74
2023/12/25 01:24:55;;;;;;;3.90;3.30;;;;;;;;;;1022641;29;20448;-75
2023/12/25 01:25:26;;;;;;;3.88;3.53;;;;;;;;;;1022633;29;20583;-74
2023/12/25 01:25:56;;;;;;;0.90;0.90;;;;;;;;;;1021354;28;20475;-73
2023/12/25 01:26:30;;;;;;;6.72;3.80;;;;;;;;;;1025788;28;20033;-73
2023/12/25 01:27:00;;;;;;;9.38;6.47;;;;;;;;;;1025988;28;20027;-73
2023/12/25 01:27:31;;;;;;;15.77;8.63;;;;;;;;;;1023428;28;20567;-74
2023/12/25 01:28:01;;;;;;;14.85;9.80;;;;;;;;;;1023184;29;20478;-74
2023/12/25 01:28:32;;;;;;;12.40;6.28;;;;;;;;;;1017962;29;20062;-74
2023/12/25 01:29:02;;;;;;;14.82;7.50;;;;;;;;;;1017184;29;20026;-74
2023/12/25 01:29:33;;;;;;;18.33;9.63;;;;;;;;;;1016832;29;20674;-74
2023/12/25 01:30:03;;;;;;;8.48;4.38;;;;;;;;;;1020126;28;20492;-74
2023/12/25 01:30:34;;;;;;;7.90;4.38;;;;;;;;;;1025394;28;20497;-74
2023/12/25 01:31:05;;;;;;;4.35;3.17;;;;;;;;;;1021439;28;20133;-74
2023/12/25 01:31:36;;;;;;;10.60;6.05;;;;;;;;;;1021896;28;20098;-74
2023/12/25 01:32:06;;;;;;;4.38;4.00;;;;;;;;;;1019983;29;20496;-73
2023/12/25 01:32:37;;;;;;;3.17;2.95;;;;;;;;;;1021272;29;20031;-73
2023/12/25 01:33:07;;;;;;;5.05;4.28;;;;;;;;;;1021179;28;20803;-73
2023/12/25 01:33:38;;;;;;;7.30;2.95;;;;;;;;;;1022213;29;20046;-73
2023/12/25 01:34:08;;;;;;;5.03;3.83;;;;;;;;;;1023676;29;20031;-73
2023/12/25 01:34:39;;;;;;;8.15;4.20;;;;;;;;;;1021903;29;20034;-73
2023/12/25 01:35:10;;;;;;;9.63;4.15;;;;;;;;;;1021696;29;20182;-73
2023/12/25 01:35:40;;;;;;;5.57;3.55;;;;;;;;;;1021268;28;20034;-73
2023/12/25 01:36:10;;;;;;;3.78;2.67;;;;;;;;;;1026907;28;20455;-73
2023/12/25 01:36:41;;;;;;;5.00;3.35;;;;;;;;;;1026657;28;20491;-73
2023/12/25 01:37:12;;;;;;;6.90;6.30;;;;;;;;;;1022698;29;20128;-73
2023/12/25 01:37:42;;;;;;;17.65;6.68;;;;;;;;;;1022560;28;20109;-73
2023/12/25 01:38:14;;;;;;;34.25;7.00;;;;;;;;;;1022843;29;20109;-73
2023/12/25 01:38:45;;;;;;;6.95;5.82;;;;;;;;;;1021430;28;20058;-73
2023/12/25 01:39:16;;;;;;;5.63;4.72;;;;;;;;;;1023114;29;20089;-73
2023/12/25 01:39:46;;;;;;;5.88;5.43;;;;;;;;;;1023325;29;20061;-74
2023/12/25 01:40:17;;;;;;;8.95;4.43;;;;;;;;;;1023565;29;20027;-74
2023/12/25 01:40:47;;;;;;;4.13;3.65;;;;;;;;;;1022669;28;20038;-74
2023/12/25 01:41:17;;;;;;;15.93;4.97;;;;;;;;;;1022365;29;20110;-74
2023/12/25 01:41:48;;;;;;;6.93;4.75;;;;;;;;;;1022242;29;20031;-74
2023/12/25 01:42:18;;;;;;;8.20;2.75;;;;;;;;;;1023545;29;20031;-74
2023/12/25 01:42:49;;;;;;;8.02;3.95;;;;;;;;;;1022299;29;20031;-74
2023/12/25 01:43:19;;;;;;;4.57;3.97;;;;;;;;;;1022971;29;20027;-74
2023/12/25 01:43:50;;;;;;;1.85;1.52;;;;;;;;;;1023522;28;20027;-73
2023/12/25 01:44:20;;;;;;;7.03;4.72;;;;;;;;;;1023622;29;20073;-73
2023/12/25 01:44:50;;;;;;;4.78;4.45;;;;;;;;;;1023866;28;20506;-73
2023/12/25 01:45:21;;;;;;;8.00;3.85;;;;;;;;;;1023083;29;20086;-73
2023/12/25 01:45:51;;;;;;;3.38;3.17;;;;;;;;;;1023043;28;20125;-73
2023/12/25 01:46:23;;;;;;;2.83;2.63;;;;;;;;;;1023669;29;20114;-73
2023/12/25 01:46:53;;;;;;;12.68;4.43;;;;;;;;;;1022724;29;20393;-72
2023/12/25 01:47:24;;;;;;;9.60;3.90;;;;;;;;;;1023144;29;20102;-72
2023/12/25 01:47:54;;;;;;;3.38;2.72;;;;;;;;;;1022562;29;20493;-72
2023/12/25 01:48:25;;;;;;;4.78;2.85;;;;;;;;;;1017973;29;20028;-72
2023/12/25 01:48:55;;;;;;;3.53;2.72;;;;;;;;;;1016773;29;20039;-73
2023/12/25 01:49:26;;;;;;;4.82;4.40;;;;;;;;;;1021894;28;20137;-73
2023/12/25 01:50:00;;;;;;;5.22;4.80;;;;;;;;;;1022184;29;20028;-73
2023/12/25 01:50:30;;;;;;;6.05;5.25;;;;;;;;;;1023100;29;20170;-72
2023/12/25 01:51:02;;;;;;;12.98;5.10;;;;;;;;;;1022009;28;20031;-72
2023/12/25 01:51:34;;;;;;;11.55;3.30;;;;;;;;;;1021726;29;20030;-73
2023/12/25 01:52:04;;;;;;;13.75;7.65;;;;;;;;;;1022724;29;20027;-73
2023/12/25 01:52:35;;;;;;;6.00;3.22;;;;;;;;;;1020950;28;20032;-72
2023/12/25 01:53:05;;;;;;;6.10;5.20;;;;;;;;;;1017153;29;20067;-72
2023/12/25 01:53:36;;;;;;;11.75;8.40;;;;;;;;;;1017756;29;20433;-72
2023/12/25 01:54:07;;;;;;;4.70;4.05;;;;;;;;;;1018792;29;20132;-72
2023/12/25 01:54:38;;;;;;;19.90;6.28;;;;;;;;;;1021458;28;20542;-72
2023/12/25 01:55:09;;;;;;;3.08;2.80;;;;;;;;;;1022557;28;20034;-72
2023/12/25 01:55:39;;;;;;;21.70;5.78;;;;;;;;;;1021817;29;20098;-73
2023/12/25 01:56:10;;;;;;;7.95;6.55;;;;;;;;;;1022104;29;20046;-74
2023/12/25 01:56:41;;;;;;;6.32;5.63;;;;;;;;;;1022581;28;20065;-73
2023/12/25 01:57:11;;;;;;;5.47;4.82;;;;;;;;;;1022374;29;20032;-74
2023/12/25 01:57:42;;;;;;;7.90;5.55;;;;;;;;;;1023170;28;20089;-74
2023/12/25 01:58:12;;;;;;;3.17;2.90;;;;;;;;;;1023435;29;20428;-74
2023/12/25 01:58:49;;;;;;;5.22;3.20;;;;;;;;;;1022032;28;20034;-74
2023/12/25 01:59:20;;;;;;;5.15;4.13;;;;;;;;;;1021283;29;20289;-74
2023/12/25 01:59:51;;;;;;;7.40;5.25;;;;;;;;;;1023850;28;20102;-73
2023/12/25 02:00:22;;;;;;;11.38;8.18;;;;;;;;;;1023310;29;20479;-74
2023/12/25 02:00:52;;;;;;;5.28;4.78;;;;;;;;;;1022409;29;20027;-74
2023/12/25 02:01:23;;;;;;;6.50;4.85;;;;;;;;;;1023261;29;20399;-74
2023/12/25 02:01:54;;;;;;;4.80;4.40;;;;;;;;;;1019094;29;20030;-73
2023/12/25 02:02:25;;;;;;;23.75;6.80;;;;;;;;;;1024548;28;20474;-74
2023/12/25 02:02:55;;;;;;;3.30;3.03;;;;;;;;;;1022652;29;20027;-74
2023/12/25 02:03:26;;;;;;;9.68;2.80;;;;;;;;;;1023348;29;20023;-73
2023/12/25 02:03:56;;;;;;;3.50;3.20;;;;;;;;;;1023211;29;20523;-73
2023/12/25 02:04:27;;;;;;;3.92;3.53;;;;;;;;;;1023724;28;20058;-73
2023/12/25 02:04:57;;;;;;;13.75;4.13;;;;;;;;;;1022209;28;20023;-73
2023/12/25 02:05:28;;;;;;;4.53;3.92;;;;;;;;;;1023136;28;20058;-73
2023/12/25 02:05:59;;;;;;;2.88;2.60;;;;;;;;;;1022999;28;20388;-73
2023/12/25 02:06:30;;;;;;;2.70;2.53;;;;;;;;;;1023743;28;20526;-74
2023/12/25 02:07:00;;;;;;;3.17;2.97;;;;;;;;;;1022457;29;20041;-74
2023/12/25 02:07:31;;;;;;;4.05;3.78;;;;;;;;;;1023572;29;20807;-73
2023/12/25 02:08:02;;;;;;;5.63;3.90;;;;;;;;;;1023544;29;20030;-75
2023/12/25 02:08:33;;;;;;;8.88;5.60;;;;;;;;;;1022390;29;20487;-72
2023/12/25 02:09:03;;;;;;;5.00;4.63;;;;;;;;;;1022143;29;20030;-75
2023/12/25 02:09:34;;;;;;;3.58;3.25;;;;;;;;;;1021893;29;20035;-74
2023/12/25 02:10:06;;;;;;;5.65;5.15;;;;;;;;;;1022263;29;20035;-75
2023/12/25 02:10:39;;;;;;;9.63;7.10;;;;;;;;;;1022410;29;20057;-72
2023/12/25 02:11:10;;;;;;;5.25;4.82;;;;;;;;;;1021569;28;20035;-72
2023/12/25 02:11:43;;;;;;;11.90;4.05;;;;;;;;;;1022076;29;20027;-72
2023/12/25 02:12:13;;;;;;;4.50;4.03;;;;;;;;;;1022747;29;20027;-72
2023/12/25 02:12:44;;;;;;;9.80;3.90;;;;;;;;;;1022240;29;20038;-72
2023/12/25 02:13:14;;;;;;;11.60;4.28;;;;;;;;;;1022976;28;20027;-72
2023/12/25 02:13:44;;;;;;;7.60;4.32;;;;;;;;;;1026053;28;20023;-72
2023/12/25 02:14:15;;;;;;;9.20;6.03;;;;;;;;;;1023088;29;20160;-72
2023/12/25 02:14:46;;;;;;;2.67;2.47;;;;;;;;;;1022728;29;20058;-72
2023/12/25 02:15:16;;;;;;;7.55;5.07;;;;;;;;;;1017385;29;20035;-72
2023/12/25 02:15:48;;;;;;;9.00;5.18;;;;;;;;;;1017086;29;20508;-72
2023/12/25 02:16:18;;;;;;;5.50;3.80;;;;;;;;;;1022043;28;20553;-72
2023/12/25 02:16:49;;;;;;;4.18;3.85;;;;;;;;;;1022183;28;20019;-72
2023/12/25 02:17:19;;;;;;;6.10;4.28;;;;;;;;;;1020668;28;20027;-74
2023/12/25 02:17:53;;;;;;;13.25;3.45;;;;;;;;;;1021872;29;20332;-73
2023/12/25 02:18:24;;;;;;;7.45;5.13;;;;;;;;;;1022586;28;20027;-73
2023/12/25 02:18:54;;;;;;;12.25;2.30;;;;;;;;;;1021336;28;20035;-72
2023/12/25 02:19:28;;;;;;;6.22;5.75;;;;;;;;;;1022954;29;20031;-72
2023/12/25 02:19:59;;;;;;;7.75;4.28;;;;;;;;;;1018780;29;20034;-72
2023/12/25 02:20:30;;;;;;;31.65;4.10;;;;;;;;;;1017381;29;20035;-72
2023/12/25 02:21:00;;;;;;;1.95;1.85;;;;;;;;;;1018382;29;20546;-72
2023/12/25 02:21:31;;;;;;;6.03;5.38;;;;;;;;;;1021811;29;20403;-72
2023/12/25 02:22:01;;;;;;;17.95;6.00;;;;;;;;;;1022509;28;20506;-72
2023/12/25 02:22:32;;;;;;;17.50;6.10;;;;;;;;;;1021488;28;20042;-73
2023/12/25 02:23:04;;;;;;;4.90;3.58;;;;;;;;;;1021507;29;20468;-73
2023/12/25 02:23:37;;;;;;;10.82;6.57;;;;;;;;;;1022001;29;20055;-73
2023/12/25 02:24:09;;;;;;;11.40;6.47;;;;;;;;;;1022510;29;20090;-72
2023/12/25 02:24:41;;;;;;;12.40;7.70;;;;;;;;;;1022420;29;20037;-72
2023/12/25 02:25:31;;;;;;;11.70;5.57;;;;;;;;;;1022455;29;20411;-73
2023/12/25 02:26:04;;;;;;;6.32;5.30;;;;;;;;;;1019671;28;20322;-73
2023/12/25 02:26:34;;;;;;;11.25;6.75;;;;;;;;;;1017932;29;20074;-73
2023/12/25 02:27:05;;;;;;;37.70;7.47;;;;;;;;;;1018021;29;20082;-73
2023/12/25 02:27:36;;;;;;;9.55;7.38;;;;;;;;;;1018651;29;20032;-73
2023/12/25 02:28:06;;;;;;;11.52;8.80;;;;;;;;;;1021707;29;20137;-73
2023/12/25 02:28:37;;;;;;;24.27;7.20;;;;;;;;;;1022367;29;20392;-73
2023/12/25 02:29:07;;;;;;;11.85;5.50;;;;;;;;;;1022495;29;20400;-73
2023/12/25 02:29:38;;;;;;;13.98;8.65;;;;;;;;;;1020867;29;20031;-73
2023/12/25 02:30:09;;;;;;;7.95;7.00;;;;;;;;;;1021725;28;20031;-74
2023/12/25 02:30:39;;;;;;;16.45;6.07;;;;;;;;;;1021548;28;20102;-73
2023/12/25 02:31:10;;;;;;;21.75;12.07;;;;;;;;;;1022895;28;20483;-73
2023/12/25 02:31:41;;;;;;;6.50;5.88;;;;;;;;;;1020389;28;20495;-73
2023/12/25 02:32:11;;;;;;;6.53;5.80;;;;;;;;;;1023617;28;20102;-73
2023/12/25 02:32:42;;;;;;;9.77;4.53;;;;;;;;;;1022354;28;20031;-73
2023/12/25 02:33:12;;;;;;;31.58;8.30;;;;;;;;;;1020425;28;20034;-73
2023/12/25 02:33:43;;;;;;;33.53;7.47;;;;;;;;;;1021478;28;20027;-73
2023/12/25 02:34:14;;;;;;;26.10;9.23;;;;;;;;;;1021644;28;20055;-74
2023/12/25 02:34:47;;;;;;;19.65;10.73;;;;;;;;;;1025542;28;20510;-73
2023/12/25 02:35:17;;;;;;;22.50;10.27;;;;;;;;;;1021839;29;20023;-73
2023/12/25 02:35:48;;;;;;;18.40;10.45;;;;;;;;;;1021927;29;20189;-73
2023/12/25 02:36:19;;;;;;;23.50;12.27;;;;;;;;;;1019990;28;20602;-74
2023/12/25 02:36:49;;;;;;;12.52;8.77;;;;;;;;;;1016104;29;20020;-75
2023/12/25 02:37:20;;;;;;;22.35;10.50;;;;;;;;;;1016942;29;20873;-74
2023/12/25 02:37:52;;;;;;;11.40;7.15;;;;;;;;;;1021820;28;20034;-74
2023/12/25 02:38:22;;;;;;;10.15;7.38;;;;;;;;;;1019410;29;20735;-74
2023/12/25 02:38:53;;;;;;;12.30;8.57;;;;;;;;;;1021557;29;20030;-74
2023/12/25 02:39:23;;;;;;;19.90;10.63;;;;;;;;;;1017547;29;20043;-73
2023/12/25 02:39:54;;;;;;;4.90;4.43;;;;;;;;;;1018131;29;20043;-73
2023/12/25 02:40:24;;;;;;;22.95;7.35;;;;;;;;;;1021671;28;20019;-74
2023/12/25 02:40:55;;;;;;;10.13;4.97;;;;;;;;;;1021681;28;20027;-73
2023/12/25 02:41:25;;;;;;;42.30;8.25;;;;;;;;;;1020652;28;20062;-74
2023/12/25 02:41:56;;;;;;;9.02;5.45;;;;;;;;;;1025002;28;20137;-73
2023/12/25 02:42:26;;;;;;;8.15;7.30;;;;;;;;;;1025420;28;20034;-73
2023/12/25 02:42:57;;;;;;;21.40;5.20;;;;;;;;;;1021768;28;20098;-73
2023/12/25 02:43:27;;;;;;;23.50;7.07;;;;;;;;;;1022062;29;20337;-73
2023/12/25 02:43:58;;;;;;;13.57;5.97;;;;;;;;;;1022118;28;20337;-73
2023/12/25 02:44:28;;;;;;;6.65;5.95;;;;;;;;;;1021718;28;20055;-73
2023/12/25 02:44:59;;;;;;;5.07;4.57;;;;;;;;;;1020673;29;20050;-72
2023/12/25 02:45:29;;;;;;;10.75;8.32;;;;;;;;;;1020752;28;20043;-73
2023/12/25 02:46:00;;;;;;;15.27;7.20;;;;;;;;;;1023963;28;20116;-73
2023/12/25 02:46:30;;;;;;;7.03;5.78;;;;;;;;;;1026433;28;20151;-73
2023/12/25 02:47:01;;;;;;;28.23;12.00;;;;;;;;;;1025778;28;20023;-73
2023/12/25 02:47:31;;;;;;;22.33;7.47;;;;;;;;;;1024792;28;20079;-74
2023/12/25 02:48:02;;;;;;;12.57;7.65;;;;;;;;;;1022316;29;20112;-73
2023/12/25 02:48:32;;;;;;;22.08;9.88;;;;;;;;;;1020873;29;20391;-73
2023/12/25 02:49:03;;;;;;;13.60;7.35;;;;;;;;;;1022369;29;20023;-73
2023/12/25 02:49:33;;;;;;;10.77;7.07;;;;;;;;;;1022260;28;20031;-73
2023/12/25 02:50:04;;;;;;;7.28;6.40;;;;;;;;;;1021326;29;20030;-73
2023/12/25 02:50:35;;;;;;;9.15;5.70;;;;;;;;;;1020753;29;20028;-73
2023/12/25 02:51:06;;;;;;;11.82;7.15;;;;;;;;;;1016763;29;20083;-73
2023/12/25 02:51:36;;;;;;;19.88;10.35;;;;;;;;;;1016838;29;20136;-73
2023/12/25 02:52:07;;;;;;;10.98;6.13;;;;;;;;;;1015878;29;20682;-75
2023/12/25 02:52:37;;;;;;;6.93;6.22;;;;;;;;;;1017755;28;20149;-74
2023/12/25 02:53:08;;;;;;;6.57;6.00;;;;;;;;;;1019798;28;20154;-74
2023/12/25 02:53:38;;;;;;;16.75;4.65;;;;;;;;;;1021043;29;20340;-74
2023/12/25 02:54:09;;;;;;;3.70;2.65;;;;;;;;;;1018991;28;20027;-74
2023/12/25 02:54:39;;;;;;;10.57;4.25;;;;;;;;;;1022060;28;20145;-74
2023/12/25 02:55:10;;;;;;;18.55;7.82;;;;;;;;;;1024196;28;20034;-73
2023/12/25 02:55:40;;;;;;;11.15;6.72;;;;;;;;;;1023497;28;20100;-73
2023/12/25 02:56:11;;;;;;;7.72;5.32;;;;;;;;;;1025139;28;20061;-74
2023/12/25 02:56:42;;;;;;;17.95;5.90;;;;;;;;;;1023227;28;20214;-74
2023/12/25 02:57:12;;;;;;;19.35;8.23;;;;;;;;;;1020336;28;20019;-74
2023/12/25 02:57:43;;;;;;;9.07;5.90;;;;;;;;;;1018410;28;20045;-74
2023/12/25 02:58:13;;;;;;;7.50;5.47;;;;;;;;;;1021675;29;20034;-74
2023/12/25 02:58:45;;;;;;;2.33;2.13;;;;;;;;;;1019470;28;20425;-74
2023/12/25 02:59:15;;;;;;;12.25;5.80;;;;;;;;;;1022599;28;20057;-73
2023/12/25 02:59:46;;;;;;;12.80;6.55;;;;;;;;;;1021586;28;20534;-73
2023/12/25 03:00:17;;;;;;;7.40;4.13;;;;;;;;;;1016626;29;20482;-73
2023/12/25 03:00:47;;;;;;;7.18;4.53;;;;;;;;;;1020071;29;20508;-73
2023/12/25 03:01:18;;;;;;;5.22;4.78;;;;;;;;;;1019559;28;20615;-73
2023/12/25 03:01:49;;;;;;;9.32;6.43;;;;;;;;;;1018584;28;20472;-73
2023/12/25 03:02:19;;;;;;;10.77;5.28;;;;;;;;;;1022718;29;20401;-73
2023/12/25 03:02:49;;;;;;;7.28;5.22;;;;;;;;;;1020622;28;20031;-74